Latest Coastal Weather Observations for Hillarys Point Boat Harbour

IDW60701

Issued at 11:02 pm WST Sunday 21 December 2014 (issued every 10 minutes, with the page automatically refreshed every 10 minutes)

About coastal observations | Map of coastal stations | Coastal observations for WA | Marine services | Other Formats
Station Details ID: 009265 Name: HILLARYS BOAT HARBOUR NTC AWS Lat: -31.83 Lon: 115.74 Height: 0.0 m
Data from the previous 72 hours. | See also: Recent months for locations in Western Australia
Date/Time
WST
Temp

°C
Wind Pressure Rain
since 9am
mm
Weather Cloud Vis
km
Sea
Height
m
Swell
Dir
 
Speed
knots
Gust
knots
hPa Trend Height
m
Period
s
Dir
21/11:00pm 21.3 SSE 4 7 1015.7 - - - - - - - - -
21/10:30pm 21.4 SSE 3 6 1015.9 - - - - - - - - -
21/10:00pm 21.5 SSE 3 8 1015.8 - - - - - - - - -
21/09:30pm 21.6 S 4 11 1015.5 - - - - - - - - -
21/09:00pm 21.6 S 5 14 1015.4 - - - - - - - - -
21/08:30pm 21.3 S 5 13 1015.1 - - - - - - - - -
21/08:00pm 21.3 S 4 11 1014.8 - - - - - - - - -
21/07:30pm 21.4 SSW 5 12 1014.6 - - - - - - - - -
21/07:00pm 21.5 SSW 6 15 1014.2 - - - - - - - - -
21/06:30pm 21.5 SSW 8 15 1014.0 - - - - - - - - -
21/06:00pm 21.5 SSW 9 18 1014.0 - - - - - - - - -
21/05:30pm 21.4 SSW 10 17 1013.8 - - - - - - - - -
21/05:00pm 21.4 SSW 11 19 1013.8 - - - - - - - - -
21/04:30pm 21.3 SSW 10 19 1013.9 - - - - - - - - -
21/04:00pm 21.2 SSW 11 18 1014.2 - - - - - - - - -
21/03:30pm 21.5 SSW 10 18 1014.5 - - - - - - - - -
21/03:00pm 21.4 SSW 11 19 1014.6 - - - - - - - - -
21/02:30pm 21.2 SSW 11 20 1014.7 - - - - - - - - -
21/02:00pm 20.7 SSW 12 21 1015.2 - - - - - - - - -
21/01:30pm 21.0 SSW 11 20 1015.5 - - - - - - - - -
21/01:00pm 21.2 SSW 10 18 1015.7 - - - - - - - - -
21/12:30pm 21.2 SSW 9 16 1015.9 - - - - - - - - -
21/12:00pm 21.3 SSW 9 16 1016.0 - - - - - - - - -
21/11:30am 21.3 SSW 8 14 1016.3 - - - - - - - - -
21/11:00am 21.4 SW 9 13 1016.6 - - - - - - - - -
21/10:30am 21.6 SW 7 11 1016.6 - - - - - - - - -
21/10:00am 22.8 S 3 7 1016.7 - - - - - - - - -
21/09:30am 22.5 SSE 3 9 1016.9 - - - - - - - - -
21/09:00am 21.4 SE 3 9 1017.1 - - - - - - - - -
21/08:30am 20.8 ESE 3 7 1017.2 - - - - - - - - -
21/08:00am 19.9 SE 3 11 1017.1 - - - - - - - - -
21/07:30am 18.9 SSE 5 11 1017.0 - - - - - - - - -
21/07:00am 18.1 SSE 5 12 1016.9 - - - - - - - - -
21/06:30am 17.8 S 5 12 1016.6 - - - - - - - - -
21/06:00am 17.3 S 5 11 1016.4 - - - - - - - - -
21/05:30am 17.2 S 5 10 1016.1 - - - - - - - - -
21/05:00am 17.4 SSE 5 9 1015.7 - - - - - - - - -
21/04:30am 17.6 SSE 4 8 1015.3 - - - - - - - - -
21/04:00am 17.6 SE 3 11 1015.1 - - - - - - - - -
21/03:30am 18.0 SSE 4 8 1014.9 - - - - - - - - -
21/03:00am 18.2 SSE 5 9 1014.7 - - - - - - - - -
21/02:30am 18.6 SSE 5 13 1014.6 - - - - - - - - -
21/02:00am 18.9 SE 5 13 1014.6 - - - - - - - - -
21/01:30am 19.3 SSE 5 11 1014.6 - - - - - - - - -
21/01:00am 19.8 SSE 6 13 1014.5 - - - - - - - - -
21/12:30am 20.4 SSE 6 11 1014.4 - - - - - - - - -
21/12:00am 21.0 SSE 9 17 1014.3 - - - - - - - - -
 
Date/Time
WST
Temp

°C
Wind Pressure Rain
since 9am
mm
Weather Cloud Vis
km
Sea
Height
m
Swell
Dir
 
Speed
knots
Gust
knots
hPa Trend Height
m
Period
s
Dir
20/11:30pm 21.5 SSE 7 12 1014.1 - - - - - - - - -
20/11:00pm 21.9 SSE 6 12 1013.9 - - - - - - - - -
20/10:30pm 22.4 SSE 5 14 1013.8 - - - - - - - - -
20/10:00pm 22.8 S 3 9 1013.3 - - - - - - - - -
20/09:30pm 23.6 SSE 5 11 1012.8 - - - - - - - - -
20/09:00pm 23.3 S 3 9 1012.1 - - - - - - - - -
20/08:30pm 22.5 S 3 8 1011.4 - - - - - - - - -
20/08:00pm 22.1 SSW 5 11 1010.9 - - - - - - - - -
20/07:30pm 22.1 SSW 6 14 1010.3 - - - - - - - - -
20/07:00pm 22.2 SSW 8 21 1009.7 - - - - - - - - -
20/06:30pm 22.1 SSW 10 18 1009.5 - - - - - - - - -
20/06:00pm 21.9 SSW 11 19 1009.2 - - - - - - - - -
20/05:30pm 21.9 SSW 13 24 1008.7 - - - - - - - - -
20/05:00pm 22.0 SSW 14 23 1008.6 - - - - - - - - -
20/04:30pm 22.2 SSW 13 23 1008.5 - - - - - - - - -
20/04:00pm 22.2 SSW 11 19 1008.4 - - - - - - - - -
20/03:30pm 22.2 SSW 10 17 1008.8 - - - - - - - - -
20/03:00pm 21.9 SW 10 17 1008.9 - - - - - - - - -
20/02:30pm 21.6 SW 14 22 1009.1 - - - - - - - - -
20/02:00pm 21.3 SW 14 23 1009.2 - - - - - - - - -
20/01:30pm 21.7 SW 13 19 1009.4 - - - - - - - - -
20/01:00pm 21.6 SW 12 21 1009.4 - - - - - - - - -
20/12:30pm 21.3 SW 13 21 1009.4 - - - - - - - - -
20/12:00pm 21.3 SW 11 17 1009.6 - - - - - - - - -
20/11:30am 21.4 SSW 10 19 1009.3 - - - - - - - - -
20/11:00am 21.1 SSW 10 18 1009.4 - - - - - - - - -
20/10:30am 20.8 SW 12 20 1009.2 - - - - - - - - -
20/10:00am 20.9 SSW 10 18 1009.0 - - - - - - - - -
20/09:30am 20.7 SW 10 17 1008.8 - - - - - - - - -
20/09:00am 20.8 SSW 10 18 1008.5 - - - - - - - - -
20/08:30am 20.8 SSW 10 19 1008.2 - - - - - - - - -
20/08:00am 20.8 SSW 9 18 1008.0 - - - - - - - - -
20/07:30am 20.6 SSW 10 16 1007.6 - - - - - - - - -
20/07:00am 20.7 SSW 10 20 1007.5 - - - - - - - - -
20/06:30am 20.8 SSW 9 18 1006.9 - - - - - - - - -
20/06:00am 20.9 SSW 8 13 1006.5 - - - - - - - - -
20/05:30am 21.0 SSW 7 12 1006.2 - - - - - - - - -
20/05:00am 21.3 SSW 4 7 1005.9 - - - - - - - - -
20/04:30am 21.2 SSW 4 8 1005.5 - - - - - - - - -
20/04:00am 21.2 S 2 5 1005.1 - - - - - - - - -
20/03:30am 21.4 SSW 4 7 1005.3 - - - - - - - - -
20/03:00am 21.4 SSW 2 5 1005.1 - - - - - - - - -
20/02:30am 22.0 SW 3 5 1005.3 - - - - - - - - -
20/02:00am 21.9 SSW 1 2 1005.3 - - - - - - - - -
20/01:30am 21.8 SSE 3 5 1005.7 - - - - - - - - -
20/01:00am 21.7 S 3 7 1006.2 - - - - - - - - -
20/12:30am 21.7 S 3 9 1006.5 - - - - - - - - -
20/12:00am 22.0 SSW 4 8 1006.8 - - - - - - - - -
 
Date/Time
WST
Temp

°C
Wind Pressure Rain
since 9am
mm
Weather Cloud Vis
km
Sea
Height
m
Swell
Dir
 
Speed
knots
Gust
knots
hPa Trend Height
m
Period
s
Dir
19/11:30pm 22.1 SSW 3 7 1006.9 - - - - - - - - -
19/11:00pm 22.3 SSW 4 9 1007.3 - - - - - - - - -
19/10:30pm 22.8 SSW 3 7 1007.9 - - - - - - - - -
19/10:00pm 23.0 SSW 4 9 1007.8 - - - - - - - - -
19/09:30pm 22.8 S 3 9 1007.9 - - - - - - - - -
19/09:00pm 22.8 SSW 5 11 1007.2 - - - - - - - - -
19/08:30pm 22.7 SSW 5 11 1007.1 - - - - - - - - -
19/08:00pm 22.7 SSW 5 11 1006.8 - - - - - - - - -
19/07:30pm 22.7 SSW 5 11 1006.5 - - - - - - - - -
19/07:00pm 22.7 SSW 5 11 1006.2 - - - - - - - - -
19/06:30pm 23.2 SSW 5 12 1006.0 - - - - - - - - -
19/06:00pm 23.9 SSW 5 12 1005.6 - - - - - - - - -
19/05:30pm 24.1 S 5 11 1005.6 - - - - - - - - -
19/05:00pm 24.3 S 5 11 1005.5 - - - - - - - - -
19/04:30pm 24.3 SSW 5 12 1005.9 - - - - - - - - -
19/04:00pm 24.3 S 4 10 1006.2 - - - - - - - - -
19/03:30pm 24.4 S 5 13 1006.8 - - - - - - - - -
19/03:00pm 24.4 S 4 10 1007.2 - - - - - - - - -
19/02:30pm 24.4 S 4 11 1007.8 - - - - - - - - -
19/02:00pm 24.2 SSW 4 9 1008.5 - - - - - - - - -
19/01:30pm 24.1 S 3 9 1008.9 - - - - - - - - -
19/01:00pm 24.4 SSW 6 12 1008.9 - - - - - - - - -
19/12:30pm 27.1 SW 6 9 1009.1 - - - - - - - - -
19/12:20pm 28.3 W 3 10 1009.2 - - - - - - - - -
19/12:00pm 34.5 NE 5 11 1009.6 - - - - - - - - -
19/11:30am 34.1 ENE 6 12 1010.1 - - - - - - - - -
19/11:00am 32.9 ENE 7 12 1010.3 - - - - - - - - -
19/10:30am 32.5 ENE 8 15 1010.7 - - - - - - - - -
19/10:00am 31.5 ENE 8 17 1011.0 - - - - - - - - -
19/09:30am 30.2 ENE 11 20 1011.0 - - - - - - - - -
19/09:00am 29.0 ENE 9 15 1011.5 - - - - - - - - -
19/08:30am 27.8 ENE 9 14 1011.8 - - - - - - - - -
19/08:00am 26.3 ENE 10 17 1012.1 - - - - - - - - -
19/07:30am 24.9 E 9 15 1012.4 - - - - - - - - -
19/07:00am 23.3 ENE 10 16 1012.4 - - - - - - - - -
19/06:30am 22.1 ENE 9 16 1012.4 - - - - - - - - -
19/06:00am 21.1 E 8 14 1012.3 - - - - - - - - -
19/05:30am 20.8 E 8 14 1012.2 - - - - - - - - -
19/05:00am 21.2 E 7 14 1012.1 - - - - - - - - -
19/04:30am 21.3 E 5 11 1012.0 - - - - - - - - -
19/04:00am 21.2 E 5 10 1011.9 - - - - - - - - -
19/03:30am 21.6 E 6 11 1011.6 - - - - - - - - -
19/03:00am 20.2 ESE 2 5 1011.8 - - - - - - - - -
19/02:30am 18.8 SSE 1 4 1012.1 - - - - - - - - -
19/02:00am 18.9 SE 2 5 1012.1 - - - - - - - - -
19/01:30am 19.3 SSE 4 6 1012.5 - - - - - - - - -
19/01:00am 19.6 SSE 5 9 1012.8 - - - - - - - - -
19/12:30am 19.8 SSE 4 7 1012.9 - - - - - - - - -
19/12:00am 19.9 SSE 4 7 1013.2 - - - - - - - - -
 
Date/Time
WST
Temp

°C
Wind Pressure Rain
since 9am
mm
Weather Cloud Vis
km
Sea
Height
m
Swell
Dir
 
Speed
knots
Gust
knots
hPa Trend Height
m
Period
s
Dir
18/11:30pm 20.3 SSE 4 8 1013.4 - - - - - - - - -

Other Formats:

Comma delimited format used in spreadsheet applications
http://www.bom.gov.au/fwo/IDW60701/IDW60701.95605.axf

JavaScript Object Notation format (JSON) in row-major order
http://www.bom.gov.au/fwo/IDW60701/IDW60701.95605.json